sensor_id;sensor_type;location;lat;lon;timestamp;temperature;humidity
11239;DHT22;5677;48.488;13.436;2024-02-26T00:01:46;12.40;50.70
11239;DHT22;5677;48.488;13.436;2024-02-26T00:04:12;12.40;50.60
11239;DHT22;5677;48.488;13.436;2024-02-26T00:06:39;12.40;50.70
11239;DHT22;5677;48.488;13.436;2024-02-26T00:09:07;12.30;50.60
11239;DHT22;5677;48.488;13.436;2024-02-26T00:11:35;12.30;50.70
11239;DHT22;5677;48.488;13.436;2024-02-26T00:14:02;12.40;50.70
11239;DHT22;5677;48.488;13.436;2024-02-26T00:16:29;12.30;50.70
11239;DHT22;5677;48.488;13.436;2024-02-26T00:18:56;12.30;50.70
11239;DHT22;5677;48.488;13.436;2024-02-26T00:21:22;12.30;50.70
11239;DHT22;5677;48.488;13.436;2024-02-26T00:23:49;12.30;50.70
11239;DHT22;5677;48.488;13.436;2024-02-26T00:26:16;12.30;50.70
11239;DHT22;5677;48.488;13.436;2024-02-26T00:28:44;12.30;50.70
11239;DHT22;5677;48.488;13.436;2024-02-26T00:31:11;12.30;50.70
11239;DHT22;5677;48.488;13.436;2024-02-26T00:33:38;12.30;50.80
11239;DHT22;5677;48.488;13.436;2024-02-26T00:36:05;12.30;50.70
11239;DHT22;5677;48.488;13.436;2024-02-26T00:38:32;12.30;50.80
11239;DHT22;5677;48.488;13.436;2024-02-26T00:40:58;12.30;50.80
11239;DHT22;5677;48.488;13.436;2024-02-26T00:43:25;12.30;50.80
11239;DHT22;5677;48.488;13.436;2024-02-26T00:45:53;12.30;50.80
11239;DHT22;5677;48.488;13.436;2024-02-26T00:48:20;12.30;50.80
11239;DHT22;5677;48.488;13.436;2024-02-26T00:50:46;12.30;50.80
11239;DHT22;5677;48.488;13.436;2024-02-26T00:53:13;12.30;50.80
11239;DHT22;5677;48.488;13.436;2024-02-26T00:55:40;12.20;50.70
11239;DHT22;5677;48.488;13.436;2024-02-26T00:58:06;12.30;50.90
11239;DHT22;5677;48.488;13.436;2024-02-26T01:00:33;12.20;50.70
11239;DHT22;5677;48.488;13.436;2024-02-26T01:03:01;12.30;50.80
11239;DHT22;5677;48.488;13.436;2024-02-26T01:05:29;12.20;50.80
11239;DHT22;5677;48.488;13.436;2024-02-26T01:07:56;12.20;50.80
11239;DHT22;5677;48.488;13.436;2024-02-26T01:10:22;12.20;50.80
11239;DHT22;5677;48.488;13.436;2024-02-26T01:12:49;12.20;50.80
11239;DHT22;5677;48.488;13.436;2024-02-26T01:15:16;12.30;50.90
11239;DHT22;5677;48.488;13.436;2024-02-26T01:17:44;12.20;50.80
11239;DHT22;5677;48.488;13.436;2024-02-26T01:20:12;12.20;50.80
11239;DHT22;5677;48.488;13.436;2024-02-26T01:22:39;12.20;50.80
11239;DHT22;5677;48.488;13.436;2024-02-26T01:25:07;12.20;50.80
11239;DHT22;5677;48.488;13.436;2024-02-26T01:27:35;12.20;50.90
11239;DHT22;5677;48.488;13.436;2024-02-26T01:30:02;12.20;50.90
11239;DHT22;5677;48.488;13.436;2024-02-26T01:32:29;12.20;50.80
11239;DHT22;5677;48.488;13.436;2024-02-26T01:34:56;12.20;50.90
11239;DHT22;5677;48.488;13.436;2024-02-26T01:37:24;12.20;50.90
11239;DHT22;5677;48.488;13.436;2024-02-26T01:39:51;12.20;50.90
11239;DHT22;5677;48.488;13.436;2024-02-26T01:42:18;12.20;50.90
11239;DHT22;5677;48.488;13.436;2024-02-26T01:44:44;12.10;50.90
11239;DHT22;5677;48.488;13.436;2024-02-26T01:47:13;12.20;50.80
11239;DHT22;5677;48.488;13.436;2024-02-26T01:49:40;12.10;50.90
11239;DHT22;5677;48.488;13.436;2024-02-26T01:52:08;12.20;50.90
11239;DHT22;5677;48.488;13.436;2024-02-26T01:54:38;12.20;50.90
11239;DHT22;5677;48.488;13.436;2024-02-26T01:57:06;12.20;50.90
11239;DHT22;5677;48.488;13.436;2024-02-26T01:59:34;12.10;50.90
11239;DHT22;5677;48.488;13.436;2024-02-26T02:02:03;12.10;50.90
11239;DHT22;5677;48.488;13.436;2024-02-26T02:04:32;12.10;50.90
11239;DHT22;5677;48.488;13.436;2024-02-26T02:07:00;12.10;50.90
11239;DHT22;5677;48.488;13.436;2024-02-26T02:09:27;12.10;50.90
11239;DHT22;5677;48.488;13.436;2024-02-26T02:11:55;12.10;50.90
11239;DHT22;5677;48.488;13.436;2024-02-26T02:14:22;12.10;50.90
11239;DHT22;5677;48.488;13.436;2024-02-26T02:16:49;12.10;50.90
11239;DHT22;5677;48.488;13.436;2024-02-26T02:19:16;12.10;50.90
11239;DHT22;5677;48.488;13.436;2024-02-26T02:21:44;12.10;50.90
11239;DHT22;5677;48.488;13.436;2024-02-26T02:24:11;12.10;51.00
11239;DHT22;5677;48.488;13.436;2024-02-26T02:26:38;12.10;51.00
11239;DHT22;5677;48.488;13.436;2024-02-26T02:29:05;12.10;51.00
11239;DHT22;5677;48.488;13.436;2024-02-26T02:31:33;12.10;51.00
11239;DHT22;5677;48.488;13.436;2024-02-26T02:34:00;12.10;51.00
11239;DHT22;5677;48.488;13.436;2024-02-26T02:36:27;12.10;51.00
11239;DHT22;5677;48.488;13.436;2024-02-26T02:38:55;12.10;51.00
11239;DHT22;5677;48.488;13.436;2024-02-26T02:41:22;12.10;51.00
11239;DHT22;5677;48.488;13.436;2024-02-26T02:43:48;12.10;50.90
11239;DHT22;5677;48.488;13.436;2024-02-26T02:46:15;12.10;50.90
11239;DHT22;5677;48.488;13.436;2024-02-26T02:48:42;12.10;50.90
11239;DHT22;5677;48.488;13.436;2024-02-26T02:51:09;12.00;50.80
11239;DHT22;5677;48.488;13.436;2024-02-26T02:53:36;12.10;50.90
11239;DHT22;5677;48.488;13.436;2024-02-26T02:56:05;12.10;50.90
11239;DHT22;5677;48.488;13.436;2024-02-26T02:58:32;12.00;50.80
11239;DHT22;5677;48.488;13.436;2024-02-26T03:00:58;12.00;50.80
11239;DHT22;5677;48.488;13.436;2024-02-26T03:03:26;12.00;50.80
11239;DHT22;5677;48.488;13.436;2024-02-26T03:05:54;12.00;50.80
11239;DHT22;5677;48.488;13.436;2024-02-26T03:08:21;12.00;50.80
11239;DHT22;5677;48.488;13.436;2024-02-26T03:10:49;12.10;50.90
11239;DHT22;5677;48.488;13.436;2024-02-26T03:13:17;12.00;50.80
11239;DHT22;5677;48.488;13.436;2024-02-26T03:15:44;12.00;50.80
11239;DHT22;5677;48.488;13.436;2024-02-26T03:18:10;12.00;50.80
11239;DHT22;5677;48.488;13.436;2024-02-26T03:20:37;12.00;50.80
11239;DHT22;5677;48.488;13.436;2024-02-26T03:23:04;12.00;50.90
11239;DHT22;5677;48.488;13.436;2024-02-26T03:25:31;12.00;50.90
11239;DHT22;5677;48.488;13.436;2024-02-26T03:27:57;12.00;50.90
11239;DHT22;5677;48.488;13.436;2024-02-26T03:30:25;12.00;50.90
11239;DHT22;5677;48.488;13.436;2024-02-26T03:32:52;12.00;50.90
11239;DHT22;5677;48.488;13.436;2024-02-26T03:35:19;12.00;50.90
11239;DHT22;5677;48.488;13.436;2024-02-26T03:37:46;12.00;50.90
11239;DHT22;5677;48.488;13.436;2024-02-26T03:40:13;12.00;50.90
11239;DHT22;5677;48.488;13.436;2024-02-26T03:42:40;12.00;51.30
11239;DHT22;5677;48.488;13.436;2024-02-26T03:45:07;12.00;50.90
11239;DHT22;5677;48.488;13.436;2024-02-26T03:47:38;12.00;51.00
11239;DHT22;5677;48.488;13.436;2024-02-26T03:50:06;12.00;51.00
11239;DHT22;5677;48.488;13.436;2024-02-26T03:52:33;12.00;51.00
11239;DHT22;5677;48.488;13.436;2024-02-26T03:55:00;12.00;51.00
11239;DHT22;5677;48.488;13.436;2024-02-26T03:57:27;12.00;51.00
11239;DHT22;5677;48.488;13.436;2024-02-26T03:59:53;11.90;51.00
11239;DHT22;5677;48.488;13.436;2024-02-26T04:02:20;12.00;51.00
11239;DHT22;5677;48.488;13.436;2024-02-26T04:04:49;11.90;51.00
11239;DHT22;5677;48.488;13.436;2024-02-26T04:07:16;11.90;51.10
11239;DHT22;5677;48.488;13.436;2024-02-26T04:09:43;12.00;51.00
11239;DHT22;5677;48.488;13.436;2024-02-26T04:12:10;12.00;51.00
11239;DHT22;5677;48.488;13.436;2024-02-26T04:14:36;12.00;51.10
11239;DHT22;5677;48.488;13.436;2024-02-26T04:17:03;12.00;51.10
11239;DHT22;5677;48.488;13.436;2024-02-26T04:19:30;11.90;51.10
11239;DHT22;5677;48.488;13.436;2024-02-26T04:21:58;11.90;51.10
11239;DHT22;5677;48.488;13.436;2024-02-26T04:24:25;11.90;51.10
11239;DHT22;5677;48.488;13.436;2024-02-26T04:26:52;11.90;51.10
11239;DHT22;5677;48.488;13.436;2024-02-26T04:29:19;11.90;51.10
11239;DHT22;5677;48.488;13.436;2024-02-26T04:31:46;11.90;51.10
11239;DHT22;5677;48.488;13.436;2024-02-26T04:34:13;11.90;51.10
11239;DHT22;5677;48.488;13.436;2024-02-26T04:36:40;11.90;51.10
11239;DHT22;5677;48.488;13.436;2024-02-26T04:39:09;11.90;51.10
11239;DHT22;5677;48.488;13.436;2024-02-26T04:41:36;11.90;51.10
11239;DHT22;5677;48.488;13.436;2024-02-26T04:44:03;11.90;51.10
11239;DHT22;5677;48.488;13.436;2024-02-26T04:46:30;11.90;51.10
11239;DHT22;5677;48.488;13.436;2024-02-26T04:48:56;11.90;51.10
11239;DHT22;5677;48.488;13.436;2024-02-26T04:51:23;11.90;51.10
11239;DHT22;5677;48.488;13.436;2024-02-26T04:53:50;11.90;51.10
11239;DHT22;5677;48.488;13.436;2024-02-26T04:56:20;11.90;51.10
11239;DHT22;5677;48.488;13.436;2024-02-26T04:58:47;11.90;51.10
11239;DHT22;5677;48.488;13.436;2024-02-26T05:01:14;11.90;51.10
11239;DHT22;5677;48.488;13.436;2024-02-26T05:03:42;11.90;51.10
11239;DHT22;5677;48.488;13.436;2024-02-26T05:06:09;11.90;51.10
11239;DHT22;5677;48.488;13.436;2024-02-26T05:08:35;11.90;51.10
11239;DHT22;5677;48.488;13.436;2024-02-26T05:11:04;11.90;51.20
11239;DHT22;5677;48.488;13.436;2024-02-26T05:13:32;11.90;51.10
11239;DHT22;5677;48.488;13.436;2024-02-26T05:15:59;11.80;51.20
11239;DHT22;5677;48.488;13.436;2024-02-26T05:18:26;11.80;51.10
11239;DHT22;5677;48.488;13.436;2024-02-26T05:20:52;11.80;51.10
11239;DHT22;5677;48.488;13.436;2024-02-26T05:23:19;11.80;51.10
11239;DHT22;5677;48.488;13.436;2024-02-26T05:25:46;11.80;51.10
11239;DHT22;5677;48.488;13.436;2024-02-26T05:28:13;11.80;51.10
11239;DHT22;5677;48.488;13.436;2024-02-26T05:30:42;11.90;51.20
11239;DHT22;5677;48.488;13.436;2024-02-26T05:33:09;11.80;51.10
11239;DHT22;5677;48.488;13.436;2024-02-26T05:35:36;11.80;51.10
11239;DHT22;5677;48.488;13.436;2024-02-26T05:38:03;11.80;51.10
11239;DHT22;5677;48.488;13.436;2024-02-26T05:40:30;11.80;51.10
11239;DHT22;5677;48.488;13.436;2024-02-26T05:42:56;11.80;51.00
11239;DHT22;5677;48.488;13.436;2024-02-26T05:45:23;11.80;51.00
11239;DHT22;5677;48.488;13.436;2024-02-26T05:47:51;11.80;51.00
11239;DHT22;5677;48.488;13.436;2024-02-26T05:50:18;11.80;51.00
11239;DHT22;5677;48.488;13.436;2024-02-26T05:52:44;11.80;51.00
11239;DHT22;5677;48.488;13.436;2024-02-26T05:55:11;11.80;51.00
11239;DHT22;5677;48.488;13.436;2024-02-26T05:57:39;11.80;50.80
11239;DHT22;5677;48.488;13.436;2024-02-26T06:00:06;11.80;50.80
11239;DHT22;5677;48.488;13.436;2024-02-26T06:02:33;11.80;50.80
11239;DHT22;5677;48.488;13.436;2024-02-26T06:05:01;11.80;50.70
11239;DHT22;5677;48.488;13.436;2024-02-26T06:07:28;11.80;50.70
11239;DHT22;5677;48.488;13.436;2024-02-26T06:09:55;11.90;50.80
11239;DHT22;5677;48.488;13.436;2024-02-26T06:12:22;11.80;50.70
11239;DHT22;5677;48.488;13.436;2024-02-26T06:14:49;11.90;50.80
11239;DHT22;5677;48.488;13.436;2024-02-26T06:17:16;11.80;50.70
11239;DHT22;5677;48.488;13.436;2024-02-26T06:19:42;11.90;50.80
11239;DHT22;5677;48.488;13.436;2024-02-26T06:22:10;11.90;50.80
11239;DHT22;5677;48.488;13.436;2024-02-26T06:24:37;11.90;50.80
11239;DHT22;5677;48.488;13.436;2024-02-26T06:27:04;11.90;50.70
11239;DHT22;5677;48.488;13.436;2024-02-26T06:29:31;11.90;50.70
11239;DHT22;5677;48.488;13.436;2024-02-26T06:31:57;11.90;50.70
11239;DHT22;5677;48.488;13.436;2024-02-26T06:34:24;11.90;50.70
11239;DHT22;5677;48.488;13.436;2024-02-26T06:36:51;11.90;50.70
11239;DHT22;5677;48.488;13.436;2024-02-26T06:39:19;11.90;50.60
11239;DHT22;5677;48.488;13.436;2024-02-26T06:41:46;11.90;50.60
11239;DHT22;5677;48.488;13.436;2024-02-26T06:44:13;12.00;50.50
11239;DHT22;5677;48.488;13.436;2024-02-26T06:46:40;12.00;50.50
11239;DHT22;5677;48.488;13.436;2024-02-26T06:49:07;12.00;50.40
11239;DHT22;5677;48.488;13.436;2024-02-26T06:51:33;12.10;50.40
11239;DHT22;5677;48.488;13.436;2024-02-26T06:54:00;12.10;50.30
11239;DHT22;5677;48.488;13.436;2024-02-26T06:56:28;12.10;50.20
11239;DHT22;5677;48.488;13.436;2024-02-26T06:58:55;12.20;50.20
11239;DHT22;5677;48.488;13.436;2024-02-26T07:01:21;12.20;50.20
11239;DHT22;5677;48.488;13.436;2024-02-26T07:03:48;12.20;50.20
11239;DHT22;5677;48.488;13.436;2024-02-26T07:06:15;12.30;50.20
11239;DHT22;5677;48.488;13.436;2024-02-26T07:08:41;12.30;50.20
11239;DHT22;5677;48.488;13.436;2024-02-26T07:11:08;12.30;50.10
11239;DHT22;5677;48.488;13.436;2024-02-26T07:13:37;12.40;50.00
11239;DHT22;5677;48.488;13.436;2024-02-26T07:16:04;12.40;50.00
11239;DHT22;5677;48.488;13.436;2024-02-26T07:18:31;12.40;49.90
11239;DHT22;5677;48.488;13.436;2024-02-26T07:20:58;12.50;49.90
11239;DHT22;5677;48.488;13.436;2024-02-26T07:23:27;12.50;49.80
11239;DHT22;5677;48.488;13.436;2024-02-26T07:25:54;12.60;49.50
11239;DHT22;5677;48.488;13.436;2024-02-26T07:28:21;12.60;49.30
11239;DHT22;5677;48.488;13.436;2024-02-26T07:30:49;12.60;49.20
11239;DHT22;5677;48.488;13.436;2024-02-26T07:33:15;12.70;49.30
11239;DHT22;5677;48.488;13.436;2024-02-26T07:35:42;12.70;49.20
11239;DHT22;5677;48.488;13.436;2024-02-26T07:38:09;12.60;49.10
11239;DHT22;5677;48.488;13.436;2024-02-26T07:40:35;12.60;49.20
11239;DHT22;5677;48.488;13.436;2024-02-26T07:43:02;12.60;49.30
11239;DHT22;5677;48.488;13.436;2024-02-26T07:45:29;12.60;49.40
11239;DHT22;5677;48.488;13.436;2024-02-26T07:47:57;12.50;50.10
11239;DHT22;5677;48.488;13.436;2024-02-26T07:50:24;12.50;49.50
11239;DHT22;5677;48.488;13.436;2024-02-26T07:52:51;12.50;49.50
11239;DHT22;5677;48.488;13.436;2024-02-26T07:55:18;12.60;49.30
11239;DHT22;5677;48.488;13.436;2024-02-26T07:57:45;12.60;49.30
11239;DHT22;5677;48.488;13.436;2024-02-26T08:00:13;12.60;49.30
11239;DHT22;5677;48.488;13.436;2024-02-26T08:02:42;12.70;49.30
11239;DHT22;5677;48.488;13.436;2024-02-26T08:05:10;12.70;49.20
11239;DHT22;5677;48.488;13.436;2024-02-26T08:07:37;12.70;49.10
11239;DHT22;5677;48.488;13.436;2024-02-26T08:10:04;12.70;48.90
11239;DHT22;5677;48.488;13.436;2024-02-26T08:12:30;12.80;48.90
11239;DHT22;5677;48.488;13.436;2024-02-26T08:14:57;12.80;48.80
11239;DHT22;5677;48.488;13.436;2024-02-26T08:17:24;12.80;48.70
11239;DHT22;5677;48.488;13.436;2024-02-26T08:19:52;12.90;48.70
11239;DHT22;5677;48.488;13.436;2024-02-26T08:22:20;12.90;48.70
11239;DHT22;5677;48.488;13.436;2024-02-26T08:24:47;12.90;48.70
11239;DHT22;5677;48.488;13.436;2024-02-26T08:27:14;12.90;48.60
11239;DHT22;5677;48.488;13.436;2024-02-26T08:29:40;13.00;48.50
11239;DHT22;5677;48.488;13.436;2024-02-26T08:32:07;13.00;48.50
11239;DHT22;5677;48.488;13.436;2024-02-26T08:34:34;13.00;48.50
11239;DHT22;5677;48.488;13.436;2024-02-26T08:37:02;12.90;48.40
11239;DHT22;5677;48.488;13.436;2024-02-26T08:39:30;13.00;48.40
11239;DHT22;5677;48.488;13.436;2024-02-26T08:41:57;13.00;48.40
11239;DHT22;5677;48.488;13.436;2024-02-26T08:44:23;13.00;48.40
11239;DHT22;5677;48.488;13.436;2024-02-26T08:46:51;13.00;48.30
11239;DHT22;5677;48.488;13.436;2024-02-26T08:49:18;13.00;48.20
11239;DHT22;5677;48.488;13.436;2024-02-26T08:51:45;13.10;48.30
11239;DHT22;5677;48.488;13.436;2024-02-26T08:54:11;13.10;48.20
11239;DHT22;5677;48.488;13.436;2024-02-26T08:56:39;13.10;48.20
11239;DHT22;5677;48.488;13.436;2024-02-26T08:59:06;13.10;48.10
11239;DHT22;5677;48.488;13.436;2024-02-26T09:01:33;13.10;48.10
11239;DHT22;5677;48.488;13.436;2024-02-26T09:04:00;13.10;48.10
11239;DHT22;5677;48.488;13.436;2024-02-26T09:06:26;13.10;48.10
11239;DHT22;5677;48.488;13.436;2024-02-26T09:08:53;13.10;48.80
11239;DHT22;5677;48.488;13.436;2024-02-26T09:11:20;13.10;48.20
11239;DHT22;5677;48.488;13.436;2024-02-26T09:13:48;13.10;48.10
11239;DHT22;5677;48.488;13.436;2024-02-26T09:16:15;13.10;48.10
11239;DHT22;5677;48.488;13.436;2024-02-26T09:18:41;13.10;48.10
11239;DHT22;5677;48.488;13.436;2024-02-26T09:21:08;13.10;48.20
11239;DHT22;5677;48.488;13.436;2024-02-26T09:23:35;13.10;48.10
11239;DHT22;5677;48.488;13.436;2024-02-26T09:26:02;13.10;48.20
11239;DHT22;5677;48.488;13.436;2024-02-26T09:28:29;13.10;48.20
11239;DHT22;5677;48.488;13.436;2024-02-26T09:31:01;13.10;48.10
11239;DHT22;5677;48.488;13.436;2024-02-26T09:33:28;13.10;48.10
11239;DHT22;5677;48.488;13.436;2024-02-26T09:35:55;13.10;48.10
11239;DHT22;5677;48.488;13.436;2024-02-26T09:38:21;13.10;48.00
11239;DHT22;5677;48.488;13.436;2024-02-26T09:40:47;13.10;48.00
11239;DHT22;5677;48.488;13.436;2024-02-26T09:43:14;13.10;48.00
11239;DHT22;5677;48.488;13.436;2024-02-26T09:45:42;13.10;48.00
11239;DHT22;5677;48.488;13.436;2024-02-26T09:48:11;13.10;48.10
11239;DHT22;5677;48.488;13.436;2024-02-26T09:50:40;13.10;48.10
11239;DHT22;5677;48.488;13.436;2024-02-26T09:53:08;13.10;48.10
11239;DHT22;5677;48.488;13.436;2024-02-26T09:55:36;13.10;48.20
11239;DHT22;5677;48.488;13.436;2024-02-26T09:58:05;13.10;48.30
11239;DHT22;5677;48.488;13.436;2024-02-26T10:00:37;13.10;48.20
11239;DHT22;5677;48.488;13.436;2024-02-26T10:03:05;13.10;48.30
11239;DHT22;5677;48.488;13.436;2024-02-26T10:05:34;13.10;48.20
11239;DHT22;5677;48.488;13.436;2024-02-26T10:08:01;13.10;48.10
11239;DHT22;5677;48.488;13.436;2024-02-26T10:10:29;13.20;48.10
11239;DHT22;5677;48.488;13.436;2024-02-26T10:12:57;13.10;48.00
11239;DHT22;5677;48.488;13.436;2024-02-26T10:15:24;13.20;48.10
11239;DHT22;5677;48.488;13.436;2024-02-26T10:17:51;13.20;48.00
11239;DHT22;5677;48.488;13.436;2024-02-26T10:20:19;13.20;48.10
11239;DHT22;5677;48.488;13.436;2024-02-26T10:22:48;13.10;48.10
11239;DHT22;5677;48.488;13.436;2024-02-26T10:25:16;13.10;48.10
11239;DHT22;5677;48.488;13.436;2024-02-26T10:27:42;13.10;48.20
11239;DHT22;5677;48.488;13.436;2024-02-26T10:30:19;13.10;48.90
11239;DHT22;5677;48.488;13.436;2024-02-26T10:32:47;13.10;48.20
11239;DHT22;5677;48.488;13.436;2024-02-26T10:35:14;13.10;48.20
11239;DHT22;5677;48.488;13.436;2024-02-26T10:37:41;13.10;48.20
11239;DHT22;5677;48.488;13.436;2024-02-26T10:40:12;13.10;48.30
11239;DHT22;5677;48.488;13.436;2024-02-26T10:42:38;13.10;48.30
11239;DHT22;5677;48.488;13.436;2024-02-26T10:45:06;13.10;48.30
11239;DHT22;5677;48.488;13.436;2024-02-26T10:47:34;13.10;48.30
11239;DHT22;5677;48.488;13.436;2024-02-26T10:50:02;13.10;48.30
11239;DHT22;5677;48.488;13.436;2024-02-26T10:52:31;13.10;48.30
11239;DHT22;5677;48.488;13.436;2024-02-26T10:55:00;13.10;48.30
11239;DHT22;5677;48.488;13.436;2024-02-26T10:57:32;13.10;48.30
11239;DHT22;5677;48.488;13.436;2024-02-26T11:00:00;13.10;48.30
11239;DHT22;5677;48.488;13.436;2024-02-26T11:02:30;13.10;48.40
11239;DHT22;5677;48.488;13.436;2024-02-26T11:04:58;13.10;48.40
11239;DHT22;5677;48.488;13.436;2024-02-26T11:07:25;13.10;48.40
11239;DHT22;5677;48.488;13.436;2024-02-26T11:09:53;13.10;48.40
11239;DHT22;5677;48.488;13.436;2024-02-26T11:12:22;13.10;48.50
11239;DHT22;5677;48.488;13.436;2024-02-26T11:14:52;13.10;48.50
11239;DHT22;5677;48.488;13.436;2024-02-26T11:17:22;13.10;48.50
11239;DHT22;5677;48.488;13.436;2024-02-26T11:19:50;13.10;48.50
11239;DHT22;5677;48.488;13.436;2024-02-26T11:22:16;13.10;48.50
11239;DHT22;5677;48.488;13.436;2024-02-26T11:24:44;13.00;48.40
11239;DHT22;5677;48.488;13.436;2024-02-26T11:27:11;13.10;48.50
11239;DHT22;5677;48.488;13.436;2024-02-26T11:29:41;13.10;48.50
11239;DHT22;5677;48.488;13.436;2024-02-26T11:32:11;13.10;48.50
11239;DHT22;5677;48.488;13.436;2024-02-26T11:34:38;13.10;48.50
11239;DHT22;5677;48.488;13.436;2024-02-26T11:37:11;13.10;48.60
11239;DHT22;5677;48.488;13.436;2024-02-26T11:39:40;13.10;48.50
11239;DHT22;5677;48.488;13.436;2024-02-26T11:42:07;13.10;48.50
11239;DHT22;5677;48.488;13.436;2024-02-26T11:44:35;13.00;48.40
11239;DHT22;5677;48.488;13.436;2024-02-26T11:47:11;13.10;48.50
11239;DHT22;5677;48.488;13.436;2024-02-26T11:49:38;13.10;48.50
11239;DHT22;5677;48.488;13.436;2024-02-26T11:52:07;13.10;48.50
11239;DHT22;5677;48.488;13.436;2024-02-26T11:54:47;13.10;48.60
11239;DHT22;5677;48.488;13.436;2024-02-26T11:57:25;13.10;48.60
11239;DHT22;5677;48.488;13.436;2024-02-26T11:59:53;13.10;48.50
11239;DHT22;5677;48.488;13.436;2024-02-26T12:02:43;13.10;48.50
11239;DHT22;5677;48.488;13.436;2024-02-26T12:05:12;13.00;48.40
11239;DHT22;5677;48.488;13.436;2024-02-26T12:07:44;13.00;48.50
11239;DHT22;5677;48.488;13.436;2024-02-26T12:10:26;13.10;48.50
11239;DHT22;5677;48.488;13.436;2024-02-26T12:12:55;13.10;48.60
11239;DHT22;5677;48.488;13.436;2024-02-26T12:15:27;13.00;48.50
11239;DHT22;5677;48.488;13.436;2024-02-26T12:17:58;13.00;48.50
11239;DHT22;5677;48.488;13.436;2024-02-26T12:20:26;13.00;48.50
11239;DHT22;5677;48.488;13.436;2024-02-26T12:22:54;13.00;48.50
11239;DHT22;5677;48.488;13.436;2024-02-26T12:25:24;13.00;48.50
11239;DHT22;5677;48.488;13.436;2024-02-26T12:27:52;13.00;48.50
11239;DHT22;5677;48.488;13.436;2024-02-26T12:30:19;13.00;48.60
11239;DHT22;5677;48.488;13.436;2024-02-26T12:32:46;13.00;48.60
11239;DHT22;5677;48.488;13.436;2024-02-26T12:35:15;13.10;48.60
11239;DHT22;5677;48.488;13.436;2024-02-26T12:37:43;13.00;48.60
11239;DHT22;5677;48.488;13.436;2024-02-26T12:40:11;13.00;48.60
11239;DHT22;5677;48.488;13.436;2024-02-26T12:42:38;13.00;48.60
11239;DHT22;5677;48.488;13.436;2024-02-26T12:45:07;13.00;48.60
11239;DHT22;5677;48.488;13.436;2024-02-26T12:47:36;13.00;48.50
11239;DHT22;5677;48.488;13.436;2024-02-26T12:50:03;13.00;48.60
11239;DHT22;5677;48.488;13.436;2024-02-26T12:52:32;13.00;48.60
11239;DHT22;5677;48.488;13.436;2024-02-26T12:54:59;13.00;48.60
11239;DHT22;5677;48.488;13.436;2024-02-26T12:57:26;13.00;48.60
11239;DHT22;5677;48.488;13.436;2024-02-26T12:59:55;13.00;49.30
11239;DHT22;5677;48.488;13.436;2024-02-26T13:02:22;13.00;48.60
11239;DHT22;5677;48.488;13.436;2024-02-26T13:04:49;13.00;48.60
11239;DHT22;5677;48.488;13.436;2024-02-26T13:07:16;13.00;48.60
11239;DHT22;5677;48.488;13.436;2024-02-26T13:09:45;13.00;48.60
11239;DHT22;5677;48.488;13.436;2024-02-26T13:12:12;13.00;48.60
11239;DHT22;5677;48.488;13.436;2024-02-26T13:14:39;13.00;48.50
11239;DHT22;5677;48.488;13.436;2024-02-26T13:17:06;13.10;48.60
11239;DHT22;5677;48.488;13.436;2024-02-26T13:19:33;13.10;48.50
11239;DHT22;5677;48.488;13.436;2024-02-26T13:22:04;13.10;48.60
11239;DHT22;5677;48.488;13.436;2024-02-26T13:24:31;13.10;48.60
11239;DHT22;5677;48.488;13.436;2024-02-26T13:26:59;13.10;48.60
11239;DHT22;5677;48.488;13.436;2024-02-26T13:29:28;13.10;48.50
11239;DHT22;5677;48.488;13.436;2024-02-26T13:31:55;13.20;48.60
11239;DHT22;5677;48.488;13.436;2024-02-26T13:34:24;13.20;48.50
11239;DHT22;5677;48.488;13.436;2024-02-26T13:36:51;13.20;48.50
11239;DHT22;5677;48.488;13.436;2024-02-26T13:39:22;13.10;48.50
11239;DHT22;5677;48.488;13.436;2024-02-26T13:41:49;13.20;48.50
11239;DHT22;5677;48.488;13.436;2024-02-26T13:44:18;13.10;48.60
11239;DHT22;5677;48.488;13.436;2024-02-26T13:46:45;13.20;48.60
11239;DHT22;5677;48.488;13.436;2024-02-26T13:49:12;13.10;48.60
11239;DHT22;5677;48.488;13.436;2024-02-26T13:51:39;13.10;48.60
11239;DHT22;5677;48.488;13.436;2024-02-26T13:54:06;13.10;48.60
11239;DHT22;5677;48.488;13.436;2024-02-26T13:56:35;13.10;48.60
11239;DHT22;5677;48.488;13.436;2024-02-26T13:59:02;13.10;48.70
11239;DHT22;5677;48.488;13.436;2024-02-26T14:01:30;13.10;48.60
11239;DHT22;5677;48.488;13.436;2024-02-26T14:03:58;13.20;48.60
11239;DHT22;5677;48.488;13.436;2024-02-26T14:06:27;13.20;48.60
11239;DHT22;5677;48.488;13.436;2024-02-26T14:08:54;13.20;48.60
11239;DHT22;5677;48.488;13.436;2024-02-26T14:11:20;13.20;48.70
11239;DHT22;5677;48.488;13.436;2024-02-26T14:13:47;13.10;48.70
11239;DHT22;5677;48.488;13.436;2024-02-26T14:16:14;13.10;48.70
11239;DHT22;5677;48.488;13.436;2024-02-26T14:18:42;13.20;49.40
11239;DHT22;5677;48.488;13.436;2024-02-26T14:21:10;13.20;48.70
11239;DHT22;5677;48.488;13.436;2024-02-26T14:23:37;13.20;48.70
11239;DHT22;5677;48.488;13.436;2024-02-26T14:26:04;13.10;48.70
11239;DHT22;5677;48.488;13.436;2024-02-26T14:28:30;13.20;48.70
11239;DHT22;5677;48.488;13.436;2024-02-26T14:30:58;13.20;48.70
11239;DHT22;5677;48.488;13.436;2024-02-26T14:33:25;13.20;48.80
11239;DHT22;5677;48.488;13.436;2024-02-26T14:35:53;13.10;48.70
11239;DHT22;5677;48.488;13.436;2024-02-26T14:38:19;13.10;48.80
11239;DHT22;5677;48.488;13.436;2024-02-26T14:40:46;13.10;48.80
11239;DHT22;5677;48.488;13.436;2024-02-26T14:43:13;13.20;48.90
11239;DHT22;5677;48.488;13.436;2024-02-26T14:45:40;13.10;48.80
11239;DHT22;5677;48.488;13.436;2024-02-26T14:48:08;13.10;48.80
11239;DHT22;5677;48.488;13.436;2024-02-26T14:50:35;13.20;48.90
11239;DHT22;5677;48.488;13.436;2024-02-26T14:53:04;13.10;48.80
11239;DHT22;5677;48.488;13.436;2024-02-26T14:55:31;13.10;48.90
11239;DHT22;5677;48.488;13.436;2024-02-26T14:57:57;13.10;48.90
11239;DHT22;5677;48.488;13.436;2024-02-26T15:00:24;13.10;48.90
11239;DHT22;5677;48.488;13.436;2024-02-26T15:02:51;13.10;48.80
11239;DHT22;5677;48.488;13.436;2024-02-26T15:05:20;13.10;48.90
11239;DHT22;5677;48.488;13.436;2024-02-26T15:07:46;13.10;48.80
11239;DHT22;5677;48.488;13.436;2024-02-26T15:10:15;13.10;48.90
11239;DHT22;5677;48.488;13.436;2024-02-26T15:12:42;13.10;48.90
11239;DHT22;5677;48.488;13.436;2024-02-26T15:15:08;13.20;48.90
11239;DHT22;5677;48.488;13.436;2024-02-26T15:17:35;13.10;48.90
11239;DHT22;5677;48.488;13.436;2024-02-26T15:20:02;13.10;48.80
11239;DHT22;5677;48.488;13.436;2024-02-26T15:22:31;13.20;48.90
11239;DHT22;5677;48.488;13.436;2024-02-26T15:24:58;13.10;48.90
11239;DHT22;5677;48.488;13.436;2024-02-26T15:27:26;13.10;48.90
11239;DHT22;5677;48.488;13.436;2024-02-26T15:29:52;13.10;48.90
11239;DHT22;5677;48.488;13.436;2024-02-26T15:32:23;13.10;48.90